createdAt,value
2022-12-18T00:21:41.103Z,9.711594
2022-12-18T00:22:41.906Z,9.711540
2022-12-18T00:23:42.504Z,9.711570
2022-12-18T00:24:42.856Z,9.711508
2022-12-18T00:25:41.064Z,9.711694
2022-12-18T00:31:44.711Z,9.711408
2022-12-18T00:32:43.957Z,9.711475
2022-12-18T00:33:43.953Z,9.711562
2022-12-18T00:34:43.952Z,9.711544
2022-12-18T00:35:43.941Z,9.711467
2022-12-18T00:36:43.945Z,9.711459
2022-12-18T00:37:43.918Z,9.711492
2022-12-18T00:38:43.923Z,9.711524
2022-12-18T00:39:43.948Z,9.711595
2022-12-18T00:40:43.908Z,9.711576
2022-12-18T00:41:43.915Z,9.711605
2022-12-18T00:42:43.889Z,9.711572
2022-12-18T00:43:43.887Z,9.711557
2022-12-18T00:44:43.876Z,9.711690
2022-12-18T00:45:43.949Z,9.711518
2022-12-18T00:46:43.911Z,9.711381
2022-12-18T00:47:43.851Z,9.711360
2022-12-18T00:48:43.841Z,9.711400
2022-12-18T00:49:44.555Z,9.711654
2022-12-18T00:50:43.865Z,9.711581
2022-12-18T00:51:43.826Z,9.711658
2022-12-18T00:52:43.809Z,9.711572
2022-12-18T00:53:43.823Z,9.711465
2022-12-18T00:54:43.806Z,9.711470
2022-12-18T00:55:44.552Z,9.711537
2022-12-18T00:56:49.003Z,9.711547
2022-12-18T00:57:45.774Z,9.711629
2022-12-18T00:58:43.780Z,9.711620
2022-12-18T00:59:43.761Z,9.711673
2022-12-18T01:00:44.597Z,9.711761
2022-12-18T01:01:43.960Z,9.711551
2022-12-18T01:02:43.878Z,9.711637
2022-12-18T01:03:43.739Z,9.711710
2022-12-18T01:04:43.731Z,9.711736
2022-12-18T01:05:44.550Z,9.711857
2022-12-18T01:06:44.552Z,9.711904
2022-12-18T01:07:43.700Z,9.712233
2022-12-18T01:08:43.706Z,9.711996
2022-12-18T01:09:43.709Z,9.711823
2022-12-18T01:10:43.680Z,9.711816
2022-12-18T01:11:43.686Z,9.712043
2022-12-18T01:12:43.692Z,9.711945
2022-12-18T01:13:43.671Z,9.711746
2022-12-18T01:14:43.656Z,9.711973
2022-12-18T01:15:43.651Z,9.711944
2022-12-18T01:16:43.682Z,9.711884
2022-12-18T01:17:43.641Z,9.711860
2022-12-18T01:18:43.644Z,9.711805
2022-12-18T01:19:43.648Z,9.711835
2022-12-18T01:20:43.609Z,9.711864
2022-12-18T01:21:43.609Z,9.711751
2022-12-18T01:22:43.596Z,9.711827
2022-12-18T01:23:43.609Z,9.711860
2022-12-18T01:24:43.590Z,9.711998
2022-12-18T01:25:43.570Z,9.711748
2022-12-18T01:26:43.570Z,9.712240
2022-12-18T01:27:43.563Z,9.712077
2022-12-18T01:28:46.059Z,9.712208
2022-12-18T01:29:43.546Z,9.711856
2022-12-18T01:30:43.533Z,9.711796
2022-12-18T01:31:43.590Z,9.712362
2022-12-18T01:32:43.521Z,9.712131
2022-12-18T01:33:43.536Z,9.712432
2022-12-18T01:34:43.517Z,9.712442
2022-12-18T01:35:43.507Z,9.712465
2022-12-18T01:36:44.133Z,9.711744
2022-12-18T01:37:43.482Z,9.711407
2022-12-18T01:38:43.511Z,9.711590
2022-12-18T01:39:43.483Z,9.711637
2022-12-18T01:40:43.467Z,9.711651
2022-12-18T01:41:43.457Z,9.711483
2022-12-18T01:42:43.448Z,9.711635
2022-12-18T01:43:43.452Z,9.711562
2022-12-18T01:44:43.433Z,9.711671
2022-12-18T01:45:43.479Z,9.711481
2022-12-18T01:46:43.433Z,9.711430
2022-12-18T01:47:43.419Z,9.711545
2022-12-18T01:48:43.428Z,9.711651
2022-12-18T01:49:43.393Z,9.711633
2022-12-18T01:50:43.390Z,9.711651
2022-12-18T01:51:43.377Z,9.711665
2022-12-18T01:52:43.373Z,9.711658
2022-12-18T01:53:43.373Z,9.711687
2022-12-18T01:54:43.365Z,9.711684
2022-12-18T01:55:43.357Z,9.711598
2022-12-18T01:56:43.344Z,9.711510
2022-12-18T01:57:43.342Z,9.711633
2022-12-18T01:58:44.061Z,9.711685
2022-12-18T01:59:43.347Z,9.711852
2022-12-18T02:00:43.372Z,9.711795
2022-12-18T02:01:43.472Z,9.711913
2022-12-18T02:02:43.417Z,9.711831
2022-12-18T02:03:43.300Z,9.711820
2022-12-18T02:04:49.161Z,9.711931
2022-12-18T02:05:45.279Z,9.711800
2022-12-18T02:06:43.272Z,9.711681
2022-12-18T02:07:45.059Z,9.711669
2022-12-18T02:08:43.264Z,9.711828
2022-12-18T02:09:43.271Z,9.711826
2022-12-18T02:10:43.245Z,9.711830
2022-12-18T02:11:43.236Z,9.711938
2022-12-18T02:12:43.325Z,9.712198
2022-12-18T02:13:43.219Z,9.711904
2022-12-18T02:14:44.213Z,9.711972
2022-12-18T02:15:43.205Z,9.712552
2022-12-18T02:16:43.259Z,9.711976
2022-12-18T02:17:43.191Z,9.712492
2022-12-18T02:18:43.189Z,9.711890
2022-12-18T02:19:43.183Z,9.712032
2022-12-18T02:20:44.135Z,9.711677
2022-12-18T02:21:43.162Z,9.712028
2022-12-18T02:22:43.169Z,9.711761
2022-12-18T02:23:43.156Z,9.711866
2022-12-18T02:24:43.183Z,9.711949
2022-12-18T02:25:43.133Z,9.711835
2022-12-18T02:26:43.123Z,9.711538
2022-12-18T02:27:43.112Z,9.711659
2022-12-18T02:28:43.732Z,9.711801
2022-12-18T02:29:43.108Z,9.711862
2022-12-18T02:30:43.128Z,9.711757
2022-12-18T02:31:43.086Z,9.711481
2022-12-18T02:32:43.071Z,9.711636
2022-12-18T02:33:43.073Z,9.711765
2022-12-18T02:34:43.057Z,9.711733
2022-12-18T02:35:43.047Z,9.711522
2022-12-18T02:36:43.056Z,9.711779
2022-12-18T02:37:43.035Z,9.711314
2022-12-18T02:38:43.061Z,9.711452
2022-12-18T02:39:43.021Z,9.711498
2022-12-18T02:40:43.561Z,9.711676
2022-12-18T02:41:43.047Z,9.711889
2022-12-18T02:42:43.002Z,9.711789
2022-12-18T02:43:43.006Z,9.712148
2022-12-18T02:44:43.072Z,9.712335
2022-12-18T02:45:43.053Z,9.712150
2022-12-18T02:46:42.971Z,9.712078
2022-12-18T02:47:42.959Z,9.711438
2022-12-18T02:48:43.558Z,9.711222
2022-12-18T02:49:42.944Z,9.712014
2022-12-18T02:50:42.936Z,9.711911
2022-12-18T02:51:42.950Z,9.711783
2022-12-18T02:52:42.927Z,9.711824
2022-12-18T02:53:42.920Z,9.712018
2022-12-18T02:54:42.912Z,9.711982
2022-12-18T02:55:42.909Z,9.712729
2022-12-18T02:56:42.893Z,9.713390
2022-12-18T02:57:42.893Z,9.712387
2022-12-18T02:58:43.636Z,9.712166
2022-12-18T02:59:42.879Z,9.711771
2022-12-18T03:00:42.961Z,9.711737
2022-12-18T03:01:43.045Z,9.711686
2022-12-18T03:02:42.962Z,9.711658
2022-12-18T03:03:43.104Z,9.711688
2022-12-18T03:04:42.858Z,9.711751
2022-12-18T03:05:42.827Z,9.711735
2022-12-18T03:06:42.824Z,9.711761
2022-12-18T03:07:42.817Z,9.711840
2022-12-18T03:08:42.815Z,9.711796
2022-12-18T03:09:42.807Z,9.711821
2022-12-18T03:10:43.635Z,9.711745
2022-12-18T03:11:42.787Z,9.711753
2022-12-18T03:12:42.789Z,9.711887
2022-12-18T03:13:43.043Z,9.711771
2022-12-18T03:14:42.768Z,9.711701
2022-12-18T03:15:42.752Z,9.711726
2022-12-18T03:16:43.747Z,9.711637
2022-12-18T03:17:42.745Z,9.711897
2022-12-18T03:18:42.738Z,9.711845
2022-12-18T03:19:42.730Z,9.711899
2022-12-18T03:20:43.558Z,9.711723
2022-12-18T03:21:42.715Z,9.711897
2022-12-18T03:22:42.715Z,9.711582
2022-12-18T03:23:43.034Z,9.711787
2022-12-18T03:24:42.705Z,9.711595
2022-12-18T03:25:42.689Z,9.711809
2022-12-18T03:26:42.676Z,9.711810
2022-12-18T03:27:45.518Z,9.711812
2022-12-18T03:28:42.661Z,9.711773
2022-12-18T03:29:42.664Z,9.712058
2022-12-18T03:30:42.687Z,9.711935
2022-12-18T03:31:42.643Z,9.711710
2022-12-18T03:32:42.772Z,9.711858
2022-12-18T03:33:43.049Z,9.711562
2022-12-18T03:34:42.616Z,9.711666
2022-12-18T03:35:42.609Z,9.712018
2022-12-18T03:36:42.612Z,9.711810
2022-12-18T03:37:42.602Z,9.711569
2022-12-18T03:38:42.585Z,9.711791
2022-12-18T03:39:42.591Z,9.711735
2022-12-18T03:40:42.585Z,9.711671
2022-12-18T03:41:42.586Z,9.711699
2022-12-18T03:42:42.573Z,9.711797
2022-12-18T03:43:42.962Z,9.711727
2022-12-18T03:44:42.588Z,9.711782
2022-12-18T03:45:42.578Z,9.711753
2022-12-18T03:46:42.542Z,9.711846
2022-12-18T03:47:42.538Z,9.711679
2022-12-18T03:48:42.620Z,9.711771
2022-12-18T03:49:42.521Z,9.711586
2022-12-18T03:50:42.518Z,9.711632
2022-12-18T03:51:42.494Z,9.711792
2022-12-18T03:52:42.492Z,9.711827
2022-12-18T03:53:43.040Z,9.711814
2022-12-18T03:54:42.474Z,9.711990
2022-12-18T03:55:42.477Z,9.711777
2022-12-18T03:56:42.456Z,9.711755
2022-12-18T03:57:42.447Z,9.711818
2022-12-18T03:58:42.470Z,9.711835
2022-12-18T03:59:42.438Z,9.712023
2022-12-18T04:00:42.437Z,9.711845
2022-12-18T04:01:42.495Z,9.711686
2022-12-18T04:02:42.551Z,9.711802
2022-12-18T04:03:42.625Z,9.711793
2022-12-18T04:04:42.511Z,9.712144
2022-12-18T04:05:42.397Z,9.711736
2022-12-18T04:06:42.384Z,9.711612
2022-12-18T04:07:42.378Z,9.711918
2022-12-18T04:08:42.377Z,9.711445
2022-12-18T04:09:42.366Z,9.711851
2022-12-18T04:10:42.372Z,9.711874
2022-12-18T04:11:42.361Z,9.712088
2022-12-18T04:12:42.338Z,9.712128
2022-12-18T04:13:42.794Z,9.712072
2022-12-18T04:14:42.335Z,9.711790
2022-12-18T04:15:42.390Z,9.711807
2022-12-18T04:16:42.325Z,9.712021
2022-12-18T04:17:42.322Z,9.711744
2022-12-18T04:18:42.303Z,9.711970
2022-12-18T04:19:42.293Z,9.712600
2022-12-18T04:20:42.389Z,9.712161
2022-12-18T04:21:42.288Z,9.712596
2022-12-18T04:22:42.279Z,9.712594
2022-12-18T04:23:42.543Z,9.711974
2022-12-18T04:24:42.305Z,9.711994
2022-12-18T04:25:42.265Z,9.711700
2022-12-18T04:26:42.244Z,9.711175
2022-12-18T04:27:42.239Z,9.711429
2022-12-18T04:28:42.236Z,9.711358
2022-12-18T04:29:42.229Z,9.711750
2022-12-18T04:30:42.294Z,9.711955
2022-12-18T04:31:42.205Z,9.711989
2022-12-18T04:32:42.222Z,9.711396
2022-12-18T04:33:42.686Z,9.711576
2022-12-18T04:34:42.188Z,9.711553
2022-12-18T04:35:42.192Z,9.711405
2022-12-18T04:36:42.283Z,9.711847
2022-12-18T04:37:42.197Z,9.711759
2022-12-18T04:38:42.168Z,9.711724
2022-12-18T04:39:42.169Z,9.711667
2022-12-18T04:40:42.154Z,9.711657
2022-12-18T04:41:42.143Z,9.711708
2022-12-18T04:42:42.159Z,9.711665
2022-12-18T04:43:42.429Z,9.711699
2022-12-18T04:44:42.115Z,9.711748
2022-12-18T04:45:42.130Z,9.712231
2022-12-18T04:46:42.156Z,9.712087
2022-12-18T04:47:42.111Z,9.711746
2022-12-18T04:48:42.091Z,9.711763
2022-12-18T04:49:42.092Z,9.711802
2022-12-18T04:50:42.098Z,9.711817
2022-12-18T04:51:42.079Z,9.711774
2022-12-18T04:52:42.157Z,9.711832
2022-12-18T04:53:42.438Z,9.711737
2022-12-18T04:54:42.052Z,9.711975
2022-12-18T04:55:42.056Z,9.711854
2022-12-18T04:56:42.040Z,9.711576
2022-12-18T04:57:42.025Z,9.711371
2022-12-18T04:58:42.040Z,9.711384
2022-12-18T04:59:42.033Z,9.711382
2022-12-18T05:00:42.024Z,9.711975
2022-12-18T05:01:42.109Z,9.711704
2022-12-18T05:02:42.119Z,9.711610
2022-12-18T05:03:42.384Z,9.711923
2022-12-18T05:04:41.998Z,9.711849
2022-12-18T05:05:42.007Z,9.712098
2022-12-18T05:06:41.974Z,9.712026
2022-12-18T05:07:42.587Z,9.712051
2022-12-18T05:08:42.059Z,9.712279
2022-12-18T05:09:41.950Z,9.712492
2022-12-18T05:10:41.939Z,9.712283
2022-12-18T05:11:41.938Z,9.711962
2022-12-18T05:12:41.923Z,9.711993
2022-12-18T05:13:42.339Z,9.712117
2022-12-18T05:14:41.906Z,9.711845
2022-12-18T05:15:41.940Z,9.711705
2022-12-18T05:16:41.912Z,9.711518
2022-12-18T05:17:41.882Z,9.711509
2022-12-18T05:18:41.892Z,9.711731
2022-12-18T05:19:41.884Z,9.712303
2022-12-18T05:20:41.874Z,9.712268
2022-12-18T05:21:41.868Z,9.712414
2022-12-18T05:22:41.875Z,9.712500
2022-12-18T05:23:42.528Z,9.712464
2022-12-18T05:24:41.941Z,9.712589
2022-12-18T05:25:41.830Z,9.712487
2022-12-18T05:26:41.830Z,9.712520
2022-12-18T05:27:41.822Z,9.712539
2022-12-18T05:28:41.832Z,9.712643
2022-12-18T05:29:41.803Z,9.712107
2022-12-18T05:30:41.798Z,9.711838
2022-12-18T05:31:42.778Z,9.711608
2022-12-18T05:32:41.774Z,9.711596
2022-12-18T05:33:42.124Z,9.711703
2022-12-18T05:34:41.763Z,9.711756
2022-12-18T05:35:41.798Z,9.711645
2022-12-18T05:36:41.764Z,9.711712
2022-12-18T05:37:43.378Z,9.711590
2022-12-18T05:38:42.739Z,9.711787
2022-12-18T05:39:41.764Z,9.711602
2022-12-18T05:40:41.819Z,9.711491
2022-12-18T05:41:41.729Z,9.711567
2022-12-18T05:42:41.714Z,9.711768
2022-12-18T05:43:42.252Z,9.711755
2022-12-18T05:44:41.702Z,9.711687
2022-12-18T05:45:41.681Z,9.711935
2022-12-18T05:46:42.694Z,9.711648
2022-12-18T05:47:41.668Z,9.711622
2022-12-18T05:48:41.661Z,9.711735
2022-12-18T05:49:41.675Z,9.711892
2022-12-18T05:50:41.660Z,9.711585
2022-12-18T05:51:41.644Z,9.711819
2022-12-18T05:52:41.636Z,9.711855
2022-12-18T05:53:42.691Z,9.712239
2022-12-18T05:54:41.627Z,9.712343
2022-12-18T05:55:41.621Z,9.712071
2022-12-18T05:56:47.057Z,9.711969
2022-12-18T05:57:43.605Z,9.711684
2022-12-18T05:58:43.045Z,9.711704
2022-12-18T05:59:41.596Z,9.711869
2022-12-18T06:00:41.584Z,9.712370
2022-12-18T06:01:41.665Z,9.711915
2022-12-18T06:02:41.701Z,9.711417
2022-12-18T06:03:44.566Z,9.711529
2022-12-18T06:04:42.547Z,9.711546
2022-12-18T06:05:41.594Z,9.711519
2022-12-18T06:06:41.553Z,9.711473
2022-12-18T06:07:41.542Z,9.711530
2022-12-18T06:08:46.017Z,9.711430
2022-12-18T06:09:43.517Z,9.711325
2022-12-18T06:10:41.517Z,9.711387
2022-12-18T06:11:41.547Z,9.711586
2022-12-18T06:12:42.245Z,9.711636
2022-12-18T06:13:41.783Z,9.711647
2022-12-18T06:14:41.493Z,9.711574
2022-12-18T06:15:41.483Z,9.711412
2022-12-18T06:16:41.475Z,9.711570
2022-12-18T06:17:42.148Z,9.711578
2022-12-18T06:18:41.469Z,9.711558
2022-12-18T06:19:41.485Z,9.711479
2022-12-18T06:20:41.451Z,9.711373
2022-12-18T06:21:41.440Z,9.711373
2022-12-18T06:22:41.442Z,9.711199
2022-12-18T06:23:41.784Z,9.711048
2022-12-18T06:24:41.425Z,9.711367
2022-12-18T06:25:41.412Z,9.711477
2022-12-18T06:26:41.412Z,9.711570
2022-12-18T06:27:41.404Z,9.711754
2022-12-18T06:28:41.494Z,9.711458
2022-12-18T06:29:41.385Z,9.711217
2022-12-18T06:30:41.385Z,9.711453
2022-12-18T06:31:41.424Z,9.711941
2022-12-18T06:32:41.362Z,9.711949
2022-12-18T06:33:42.540Z,9.712108
2022-12-18T06:34:41.351Z,9.711685
2022-12-18T06:35:41.339Z,9.711583
2022-12-18T06:36:41.342Z,9.711767
2022-12-18T06:37:42.105Z,9.711432
2022-12-18T06:38:41.722Z,9.711422
2022-12-18T06:39:41.319Z,9.711409
2022-12-18T06:40:41.311Z,9.711453
2022-12-18T06:41:41.308Z,9.711350
2022-12-18T06:42:41.300Z,9.711480
2022-12-18T06:43:41.739Z,9.711460
2022-12-18T06:44:41.381Z,9.711490
2022-12-18T06:45:41.354Z,9.711757
2022-12-18T06:46:41.264Z,9.711391
2022-12-18T06:47:41.272Z,9.711516
2022-12-18T06:48:41.273Z,9.711619
2022-12-18T06:49:41.266Z,9.711585
2022-12-18T06:50:41.243Z,9.711347
2022-12-18T06:51:41.250Z,9.711348
2022-12-18T06:52:42.209Z,9.711127
2022-12-18T06:53:41.662Z,9.711062
2022-12-18T06:54:41.212Z,9.711399
2022-12-18T06:55:41.204Z,9.711733
2022-12-18T06:56:41.293Z,9.711853
2022-12-18T06:57:41.200Z,9.711611
2022-12-18T06:58:41.180Z,9.711743
2022-12-18T06:59:41.171Z,9.711894
2022-12-18T07:00:41.298Z,9.711563
2022-12-18T07:01:41.618Z,9.711498
2022-12-18T07:02:41.447Z,9.711524
2022-12-18T07:03:41.748Z,9.711444
2022-12-18T07:04:41.137Z,9.711072
2022-12-18T07:05:41.132Z,9.711065
2022-12-18T07:14:30.461Z,9.711295
2022-12-18T07:15:29.567Z,9.711639
2022-12-18T07:16:29.771Z,9.711616
2022-12-18T07:17:29.552Z,9.711670
2022-12-18T07:18:29.544Z,9.711703
2022-12-18T07:19:29.537Z,9.711662
2022-12-18T07:20:29.615Z,9.711622
2022-12-18T07:21:29.531Z,9.711614
2022-12-18T07:22:29.533Z,9.711654
2022-12-18T07:23:29.516Z,9.711616
2022-12-18T07:24:29.501Z,9.711609
2022-12-18T07:25:29.494Z,9.711606
2022-12-18T07:26:29.492Z,9.711639
2022-12-18T07:27:29.475Z,9.711631
2022-12-18T07:28:29.471Z,9.711619
2022-12-18T07:29:29.468Z,9.711636
2022-12-18T07:30:29.556Z,9.711587
2022-12-18T07:31:29.481Z,9.711568
2022-12-18T07:32:29.549Z,9.711555
2022-12-18T07:33:29.443Z,9.711606
2022-12-18T07:34:29.425Z,9.711576
2022-12-18T07:35:29.419Z,9.711546
2022-12-18T07:36:29.415Z,9.711563
2022-12-18T07:37:29.395Z,9.711634
2022-12-18T07:38:29.440Z,9.711662
2022-12-18T07:39:29.393Z,9.711548
2022-12-18T07:40:29.449Z,9.711563
2022-12-18T07:41:29.880Z,9.711563
2022-12-18T07:42:29.441Z,9.711529
2022-12-18T07:43:29.357Z,9.711492
2022-12-18T07:44:29.340Z,9.711493
2022-12-18T07:45:29.387Z,9.711560
2022-12-18T07:46:29.334Z,9.711533
2022-12-18T07:47:29.324Z,9.711618
2022-12-18T07:48:29.414Z,9.711603
2022-12-18T07:49:29.312Z,9.711628
2022-12-18T07:50:29.406Z,9.711552
2022-12-18T07:51:29.296Z,9.711620
2022-12-18T07:52:29.281Z,9.711607
2022-12-18T07:53:29.280Z,9.711677
2022-12-18T07:54:29.267Z,9.711595
2022-12-18T07:55:35.341Z,9.711683
2022-12-18T07:56:31.484Z,9.711637
2022-12-18T07:58:31.243Z,9.711685
2022-12-18T07:59:29.248Z,9.711537
2022-12-18T08:00:29.227Z,9.711650
2022-12-18T08:01:30.076Z,9.711757
2022-12-18T08:02:29.324Z,9.711798
2022-12-18T08:03:29.889Z,9.711883
2022-12-18T08:04:29.292Z,9.711825
2022-12-18T08:05:29.197Z,9.711779
2022-12-18T08:06:29.196Z,9.711686
2022-12-18T08:07:29.184Z,9.711681
2022-12-18T08:08:29.177Z,9.711916
2022-12-18T08:09:29.163Z,9.711951
2022-12-18T08:10:29.152Z,9.711789
2022-12-18T08:11:29.173Z,9.711774
2022-12-18T08:12:29.161Z,9.711881
2022-12-18T08:13:29.133Z,9.712267
2022-12-18T08:14:29.127Z,9.712137
2022-12-18T08:15:29.111Z,9.711892
2022-12-18T08:16:29.182Z,9.711801
2022-12-18T08:17:29.888Z,9.711908
2022-12-18T08:18:29.109Z,9.712040
2022-12-18T08:19:29.102Z,9.712040
2022-12-18T08:20:29.184Z,9.711753
2022-12-18T08:21:29.088Z,9.711703
2022-12-18T08:22:29.056Z,9.711789
2022-12-18T08:23:29.119Z,9.711812
2022-12-18T08:24:29.040Z,9.711927
2022-12-18T08:25:29.029Z,9.711816
2022-12-18T08:26:29.046Z,9.711770
2022-12-18T08:27:30.092Z,9.711740
2022-12-18T08:28:30.024Z,9.711869
2022-12-18T08:29:29.005Z,9.712124
2022-12-18T08:30:29.078Z,9.712045
2022-12-18T08:31:30.030Z,9.711791
2022-12-18T08:32:29.056Z,9.711720
2022-12-18T08:33:28.974Z,9.711704
2022-12-18T08:34:29.025Z,9.711681
2022-12-18T08:35:34.271Z,9.711683
2022-12-18T08:36:31.061Z,9.711710
2022-12-18T08:37:28.943Z,9.711709
2022-12-18T08:38:28.944Z,9.711747
2022-12-18T08:39:28.922Z,9.711779
2022-12-18T08:40:28.925Z,9.711782
2022-12-18T08:41:28.947Z,9.711802
2022-12-18T08:42:28.911Z,9.711760
2022-12-18T08:43:28.906Z,9.711693
2022-12-18T08:44:28.892Z,9.711743
2022-12-18T08:45:28.889Z,9.711812
2022-12-18T08:46:30.536Z,9.711844
2022-12-18T08:47:28.874Z,9.711797
2022-12-18T08:48:28.874Z,9.711664
2022-12-18T08:49:28.864Z,9.711762
2022-12-18T08:50:28.851Z,9.711777
2022-12-18T08:51:28.831Z,9.711821
2022-12-18T08:52:28.941Z,9.711740
2022-12-18T08:53:36.185Z,9.711843
2022-12-18T08:54:30.820Z,9.711844
2022-12-18T08:55:28.829Z,9.712045
2022-12-18T08:56:28.798Z,9.711676
2022-12-18T08:57:28.808Z,9.711807
2022-12-18T08:58:30.388Z,9.711791
2022-12-18T08:59:28.777Z,9.711924
2022-12-18T09:00:28.779Z,9.711705
2022-12-18T09:01:28.846Z,9.711905
2022-12-18T09:02:28.931Z,9.711966
2022-12-18T09:03:28.824Z,9.711793
2022-12-18T09:04:29.397Z,9.711873
2022-12-18T09:05:28.733Z,9.711894
2022-12-18T09:06:28.725Z,9.711862
2022-12-18T09:07:28.728Z,9.711852
2022-12-18T09:08:28.808Z,9.711818
2022-12-18T09:09:28.999Z,9.711803
2022-12-18T09:10:28.703Z,9.711745
2022-12-18T09:11:28.694Z,9.711768
2022-12-18T09:12:28.689Z,9.711903
2022-12-18T09:13:28.679Z,9.711904
2022-12-18T09:14:29.343Z,9.711946
2022-12-18T09:15:28.667Z,9.711701
2022-12-18T09:16:32.019Z,9.711862
2022-12-18T09:17:29.683Z,9.711904
2022-12-18T09:18:28.639Z,9.711758
2022-12-18T09:19:28.636Z,9.711834
2022-12-18T09:20:28.627Z,9.711896
2022-12-18T09:21:28.668Z,9.711956
2022-12-18T09:22:28.615Z,9.711838
2022-12-18T09:23:28.596Z,9.711802
2022-12-18T09:24:28.694Z,9.711431
2022-12-18T09:25:28.604Z,9.711596
2022-12-18T21:33:42.586Z,9.711766
2022-12-18T21:34:48.401Z,9.712952
2022-12-18T21:35:43.538Z,9.712175
2022-12-18T21:36:42.534Z,9.711503
2022-12-18T21:37:42.555Z,9.711600
2022-12-18T21:38:42.517Z,9.711542
2022-12-18T21:39:42.521Z,9.711394
2022-12-18T21:40:42.524Z,9.711375
2022-12-18T21:41:42.624Z,9.711432
2022-12-18T21:42:42.586Z,9.711623
2022-12-18T21:43:42.499Z,9.711599
2022-12-18T21:44:42.692Z,9.711600
2022-12-18T21:45:42.541Z,9.711559
2022-12-18T21:46:42.465Z,9.711603
2022-12-18T21:47:42.494Z,9.711586
2022-12-18T21:48:42.445Z,9.711571
2022-12-18T21:49:42.451Z,9.711578
2022-12-18T21:50:42.436Z,9.711564
2022-12-18T21:51:42.439Z,9.711582
2022-12-18T21:52:42.425Z,9.711585
2022-12-18T21:53:42.429Z,9.711577
2022-12-18T21:54:42.411Z,9.711587
2022-12-18T21:55:42.400Z,9.711563
2022-12-18T21:56:42.405Z,9.711552
2022-12-18T21:57:42.378Z,9.711491
2022-12-18T21:58:56.911Z,9.711511
2022-12-18T21:59:43.369Z,9.711552
2022-12-18T22:00:46.999Z,9.711580
2022-12-18T22:01:45.246Z,9.711605
2022-12-18T22:02:42.468Z,9.711592
2022-12-18T22:03:42.493Z,9.711555
2022-12-18T22:04:43.365Z,9.711597
2022-12-18T22:05:42.330Z,9.711677
2022-12-18T22:06:42.335Z,9.711679
2022-12-18T22:07:42.315Z,9.711656
2022-12-18T22:08:43.805Z,9.711617
2022-12-18T22:09:42.303Z,9.711631
2022-12-18T22:10:42.287Z,9.711606
2022-12-18T22:11:42.271Z,9.711679
2022-12-18T22:12:44.157Z,9.711678
2022-12-18T22:13:42.258Z,9.711602
2022-12-18T22:14:42.360Z,9.711637
2022-12-18T22:15:42.287Z,9.711625
2022-12-18T22:16:42.242Z,9.711637
2022-12-18T22:17:42.239Z,9.711646
2022-12-18T22:18:42.231Z,9.711622
2022-12-18T22:19:43.099Z,9.711643
2022-12-18T22:20:43.206Z,9.711673
2022-12-18T22:21:42.223Z,9.711651
2022-12-18T22:22:43.135Z,9.711650
2022-12-18T22:23:42.182Z,9.711668
2022-12-18T22:24:42.225Z,9.711700
2022-12-18T22:25:42.167Z,9.711706
2022-12-18T22:26:42.169Z,9.711775
2022-12-18T22:27:42.155Z,9.711732
2022-12-18T22:28:43.144Z,9.711741
2022-12-18T22:29:43.049Z,9.711687
2022-12-18T22:30:42.322Z,9.711711
2022-12-18T22:31:42.168Z,9.711553
2022-12-18T22:32:42.118Z,9.711547
2022-12-18T22:33:42.117Z,9.711502
2022-12-18T22:34:42.096Z,9.711677
2022-12-18T22:35:42.106Z,9.711865
2022-12-18T22:36:42.085Z,9.711708
2022-12-18T22:37:42.092Z,9.711587
2022-12-18T22:38:42.089Z,9.711702
2022-12-18T22:39:42.068Z,9.711722
2022-12-18T22:40:42.053Z,9.711829
2022-12-18T22:41:42.040Z,9.711668
2022-12-18T22:42:42.051Z,9.711687
2022-12-18T22:43:42.076Z,9.712261
2022-12-18T22:44:42.038Z,9.712555
2022-12-18T22:45:42.013Z,9.712171
2022-12-18T22:46:42.175Z,9.712147
2022-12-18T22:47:42.007Z,9.711796
2022-12-18T22:48:42.004Z,9.711643
2022-12-18T22:49:41.979Z,9.711643
2022-12-18T22:50:41.984Z,9.711654
2022-12-18T22:51:41.982Z,9.711593
2022-12-18T22:52:41.953Z,9.711474
2022-12-18T22:53:41.948Z,9.711474
2022-12-18T22:54:42.627Z,9.711665
2022-12-18T22:55:41.924Z,9.711575
2022-12-18T22:56:41.923Z,9.711605
2022-12-18T22:57:47.984Z,9.711657
2022-12-18T22:58:42.909Z,9.711453
2022-12-18T22:59:41.908Z,9.711856
2022-12-18T23:00:42.644Z,9.711981
2022-12-18T23:01:42.073Z,9.711796
2022-12-18T23:02:42.169Z,9.711687
2022-12-18T23:03:41.899Z,9.711782
2022-12-18T23:04:41.868Z,9.711555
2022-12-18T23:05:41.846Z,9.711853
2022-12-18T23:06:41.851Z,9.711765
2022-12-18T23:07:41.838Z,9.711639
2022-12-18T23:08:42.638Z,9.711922
2022-12-18T23:09:41.825Z,9.711809
2022-12-18T23:10:41.814Z,9.711888
2022-12-18T23:11:41.790Z,9.711934
2022-12-18T23:12:42.806Z,9.711968
2022-12-18T23:13:41.797Z,9.711811
2022-12-18T23:14:41.790Z,9.711765
2022-12-18T23:15:41.829Z,9.711490
2022-12-18T23:16:41.775Z,9.711195
2022-12-18T23:17:41.785Z,9.711443
2022-12-18T23:18:41.848Z,9.711556
2022-12-18T23:19:47.158Z,9.711794
2022-12-18T23:20:44.620Z,9.711721
2022-12-18T23:21:44.664Z,9.711697
2022-12-18T23:22:42.659Z,9.711692
2022-12-18T23:23:43.785Z,9.711783
2022-12-18T23:24:43.668Z,9.711698
2022-12-18T23:25:41.682Z,9.711634
2022-12-18T23:26:42.701Z,9.711625
2022-12-18T23:27:41.695Z,9.711701
2022-12-18T23:28:41.677Z,9.711631
2022-12-18T23:29:41.674Z,9.711693
2022-12-18T23:30:41.663Z,9.711661
2022-12-18T23:31:41.719Z,9.711677
2022-12-18T23:32:41.647Z,9.711695
2022-12-18T23:33:41.637Z,9.711611
2022-12-18T23:34:41.735Z,9.711601
2022-12-18T23:35:41.635Z,9.711616
2022-12-18T23:36:45.564Z,9.711629
2022-12-18T23:37:58.878Z,9.711625
2022-12-18T23:38:44.140Z,9.711605
2022-12-18T23:39:41.586Z,9.711626
2022-12-18T23:40:41.582Z,9.711633
2022-12-18T23:41:41.572Z,9.711664
2022-12-18T23:42:41.567Z,9.711672
2022-12-18T23:43:41.562Z,9.711600
2022-12-18T23:44:41.547Z,9.711626
2022-12-18T23:45:41.537Z,9.711668
2022-12-18T23:46:41.610Z,9.711632
2022-12-18T23:47:41.553Z,9.711683
2022-12-18T23:48:41.532Z,9.711667
2022-12-18T23:49:41.508Z,9.711542
2022-12-18T23:50:41.612Z,9.711982
2022-12-18T23:51:41.485Z,9.712048
2022-12-18T23:52:41.481Z,9.712205
2022-12-18T23:53:41.501Z,9.712185
2022-12-18T23:54:41.480Z,9.712739
2022-12-18T23:55:41.484Z,9.712078
2022-12-18T23:56:42.055Z,9.712102
2022-12-18T23:57:41.485Z,9.712255
2022-12-18T23:58:41.499Z,9.711831
2022-12-18T23:59:41.434Z,9.711700
